CheckWX is a tool to help pilots better visualize weather data.  It is not intended as a substitute for an official pre-flight weather briefing.

08:57:40 UTC

KOKC METAR
Will Rogers World Airport
Oklahoma City, Oklahoma, USA
Current

1 hour ago

KOKC 280752Z 16008KT 7SM SCT150 BKN180 BKN220 19/18 A2959 RMK AO2 SLP005 T01890178
Observed
Mar-28 @ 07:52 UTC
Wind
  • 160° at 8 KTS
Visibility
7 SM
Flight Rules
VFR
Cloud Levels
  • Scattered at 15,000' AGL
  • Broken at 18,000' AGL
  • Broken at 22,000' AGL
Temperature
19°C / 66°F
Dewpoint
18°C / 64°F
Humidity
94%
Altimeter
29.59" Hg
Pressure
1002.02 hPa
Previous

2 hours ago

KOKC 280652Z 18010KT 9SM SCT150 BKN180 OVC220 20/18 A2960 RMK AO2 SLP010 T02000183
Observed
Mar-28 @ 06:52 UTC
Wind
  • 180° at 10 KTS
Visibility
9 SM
Flight Rules
VFR
Cloud Levels
  • Scattered at 15,000' AGL
  • Broken at 18,000' AGL
  • Overcast at 22,000' AGL
Temperature
20°C / 68°F
Dewpoint
18°C / 64°F
Humidity
88%
Altimeter
29.6" Hg
Pressure
1002.42 hPa
Previous

3 hours ago

KOKC 280552Z 19009KT 10SM SCT180 BKN220 OVC250 20/18 A2962 RMK AO2 SLP015 T02000178 10222 20194 402610172 58009
Observed
Mar-28 @ 05:52 UTC
Wind
  • 190° at 9 KTS
Visibility
10 SM
Flight Rules
VFR
Cloud Levels
  • Scattered at 18,000' AGL
  • Broken at 22,000' AGL
  • Overcast at 25,000' AGL
Temperature
20°C / 68°F
Dewpoint
18°C / 64°F
Humidity
88%
Altimeter
29.62" Hg
Pressure
1003.02 hPa